sensor_id;sensor_type;location;lat;lon;timestamp;P1;durP1;ratioP1;P2;durP2;ratioP2
10769;SDS011;5437;50.852;4.438;2023-02-07T00:00:34;20.23;;;12.10;;
10769;SDS011;5437;50.852;4.438;2023-02-07T00:03:00;22.75;;;12.05;;
10769;SDS011;5437;50.852;4.438;2023-02-07T00:05:26;20.02;;;11.38;;
10769;SDS011;5437;50.852;4.438;2023-02-07T00:07:53;21.98;;;12.27;;
10769;SDS011;5437;50.852;4.438;2023-02-07T00:10:19;23.27;;;12.13;;
10769;SDS011;5437;50.852;4.438;2023-02-07T00:12:45;22.55;;;12.13;;
10769;SDS011;5437;50.852;4.438;2023-02-07T00:15:11;25.48;;;12.63;;
10769;SDS011;5437;50.852;4.438;2023-02-07T00:17:37;24.35;;;12.50;;
10769;SDS011;5437;50.852;4.438;2023-02-07T00:20:03;20.95;;;12.00;;
10769;SDS011;5437;50.852;4.438;2023-02-07T00:22:30;23.25;;;12.38;;
10769;SDS011;5437;50.852;4.438;2023-02-07T00:24:56;24.75;;;11.90;;
10769;SDS011;5437;50.852;4.438;2023-02-07T00:27:22;22.48;;;12.85;;
10769;SDS011;5437;50.852;4.438;2023-02-07T00:29:48;24.35;;;12.32;;
10769;SDS011;5437;50.852;4.438;2023-02-07T00:32:14;21.95;;;12.38;;
10769;SDS011;5437;50.852;4.438;2023-02-07T00:34:40;22.88;;;12.05;;
10769;SDS011;5437;50.852;4.438;2023-02-07T00:37:07;20.83;;;12.00;;
10769;SDS011;5437;50.852;4.438;2023-02-07T00:39:33;24.38;;;11.98;;
10769;SDS011;5437;50.852;4.438;2023-02-07T00:41:59;23.90;;;11.90;;
10769;SDS011;5437;50.852;4.438;2023-02-07T00:44:25;20.90;;;12.25;;
10769;SDS011;5437;50.852;4.438;2023-02-07T00:46:52;21.40;;;12.15;;
10769;SDS011;5437;50.852;4.438;2023-02-07T00:49:18;25.55;;;12.63;;
10769;SDS011;5437;50.852;4.438;2023-02-07T00:51:44;24.15;;;12.63;;
10769;SDS011;5437;50.852;4.438;2023-02-07T00:54:10;24.40;;;13.27;;
10769;SDS011;5437;50.852;4.438;2023-02-07T00:56:36;23.00;;;12.50;;
10769;SDS011;5437;50.852;4.438;2023-02-07T00:59:02;21.90;;;12.65;;
10769;SDS011;5437;50.852;4.438;2023-02-07T01:01:28;24.80;;;13.52;;
10769;SDS011;5437;50.852;4.438;2023-02-07T01:03:54;23.83;;;13.27;;
10769;SDS011;5437;50.852;4.438;2023-02-07T01:06:20;22.80;;;12.55;;
10769;SDS011;5437;50.852;4.438;2023-02-07T01:08:46;24.63;;;13.18;;
10769;SDS011;5437;50.852;4.438;2023-02-07T01:11:13;26.27;;;13.18;;
10769;SDS011;5437;50.852;4.438;2023-02-07T01:13:40;23.30;;;13.23;;
10769;SDS011;5437;50.852;4.438;2023-02-07T01:16:17;28.77;;;13.00;;
10769;SDS011;5437;50.852;4.438;2023-02-07T01:18:43;23.90;;;13.48;;
10769;SDS011;5437;50.852;4.438;2023-02-07T01:21:15;22.17;;;12.60;;
10769;SDS011;5437;50.852;4.438;2023-02-07T01:23:42;26.35;;;13.10;;
10769;SDS011;5437;50.852;4.438;2023-02-07T01:26:08;21.65;;;12.27;;
10769;SDS011;5437;50.852;4.438;2023-02-07T01:28:34;25.60;;;13.15;;
10769;SDS011;5437;50.852;4.438;2023-02-07T01:31:04;21.42;;;11.95;;
10769;SDS011;5437;50.852;4.438;2023-02-07T01:33:30;24.55;;;13.25;;
10769;SDS011;5437;50.852;4.438;2023-02-07T01:35:56;25.98;;;13.10;;
10769;SDS011;5437;50.852;4.438;2023-02-07T01:38:22;22.60;;;12.45;;
10769;SDS011;5437;50.852;4.438;2023-02-07T01:40:48;22.65;;;13.68;;
10769;SDS011;5437;50.852;4.438;2023-02-07T01:43:16;25.50;;;13.38;;
10769;SDS011;5437;50.852;4.438;2023-02-07T01:45:43;24.15;;;13.32;;
10769;SDS011;5437;50.852;4.438;2023-02-07T01:48:13;26.85;;;13.32;;
10769;SDS011;5437;50.852;4.438;2023-02-07T01:50:40;23.35;;;13.32;;
10769;SDS011;5437;50.852;4.438;2023-02-07T01:53:07;25.92;;;13.15;;
10769;SDS011;5437;50.852;4.438;2023-02-07T01:55:35;27.70;;;13.18;;
10769;SDS011;5437;50.852;4.438;2023-02-07T01:58:02;24.05;;;12.93;;
10769;SDS011;5437;50.852;4.438;2023-02-07T02:00:29;25.45;;;13.73;;
10769;SDS011;5437;50.852;4.438;2023-02-07T02:02:55;24.55;;;13.13;;
10769;SDS011;5437;50.852;4.438;2023-02-07T02:05:21;22.30;;;13.95;;
10769;SDS011;5437;50.852;4.438;2023-02-07T02:07:48;23.77;;;13.70;;
10769;SDS011;5437;50.852;4.438;2023-02-07T02:10:21;24.25;;;13.40;;
10769;SDS011;5437;50.852;4.438;2023-02-07T02:15:25;25.48;;;14.30;;
10769;SDS011;5437;50.852;4.438;2023-02-07T02:17:56;23.20;;;13.88;;
10769;SDS011;5437;50.852;4.438;2023-02-07T02:25:31;26.20;;;16.52;;
10769;SDS011;5437;50.852;4.438;2023-02-07T02:31:09;30.60;;;15.60;;
10769;SDS011;5437;50.852;4.438;2023-02-07T02:41:16;29.23;;;16.13;;
10769;SDS011;5437;50.852;4.438;2023-02-07T02:43:46;32.17;;;16.67;;
10769;SDS011;5437;50.852;4.438;2023-02-07T02:46:22;37.78;;;17.02;;
10769;SDS011;5437;50.852;4.438;2023-02-07T02:48:49;34.50;;;17.20;;
10769;SDS011;5437;50.852;4.438;2023-02-07T02:51:16;30.25;;;16.20;;
10769;SDS011;5437;50.852;4.438;2023-02-07T02:53:51;34.42;;;16.92;;
10769;SDS011;5437;50.852;4.438;2023-02-07T03:01:40;28.58;;;16.42;;
10769;SDS011;5437;50.852;4.438;2023-02-07T03:09:44;36.42;;;15.35;;
10769;SDS011;5437;50.852;4.438;2023-02-07T03:12:15;39.33;;;15.15;;
10769;SDS011;5437;50.852;4.438;2023-02-07T03:14:55;25.73;;;14.18;;
10769;SDS011;5437;50.852;4.438;2023-02-07T03:20:20;29.40;;;14.18;;
10769;SDS011;5437;50.852;4.438;2023-02-07T03:22:47;23.70;;;13.95;;
10769;SDS011;5437;50.852;4.438;2023-02-07T03:25:15;23.70;;;14.10;;
10769;SDS011;5437;50.852;4.438;2023-02-07T03:27:41;24.23;;;14.23;;
10769;SDS011;5437;50.852;4.438;2023-02-07T03:30:09;23.83;;;14.55;;
10769;SDS011;5437;50.852;4.438;2023-02-07T03:32:38;23.73;;;14.38;;
10769;SDS011;5437;50.852;4.438;2023-02-07T03:35:10;40.35;;;14.73;;
10769;SDS011;5437;50.852;4.438;2023-02-07T03:37:42;22.13;;;13.70;;
10769;SDS011;5437;50.852;4.438;2023-02-07T03:40:10;38.53;;;15.70;;
10769;SDS011;5437;50.852;4.438;2023-02-07T03:42:38;30.80;;;13.80;;
10769;SDS011;5437;50.852;4.438;2023-02-07T03:45:06;35.10;;;14.18;;
10769;SDS011;5437;50.852;4.438;2023-02-07T03:47:33;30.13;;;13.80;;
10769;SDS011;5437;50.852;4.438;2023-02-07T03:49:59;31.42;;;13.85;;
10769;SDS011;5437;50.852;4.438;2023-02-07T03:52:25;61.47;;;16.13;;
10769;SDS011;5437;50.852;4.438;2023-02-07T03:54:51;27.25;;;13.85;;
10769;SDS011;5437;50.852;4.438;2023-02-07T03:57:17;23.65;;;14.10;;
10769;SDS011;5437;50.852;4.438;2023-02-07T03:59:44;21.13;;;13.77;;
10769;SDS011;5437;50.852;4.438;2023-02-07T04:02:10;21.48;;;14.25;;
10769;SDS011;5437;50.852;4.438;2023-02-07T04:04:36;24.08;;;13.70;;
10769;SDS011;5437;50.852;4.438;2023-02-07T04:07:02;22.60;;;13.60;;
10769;SDS011;5437;50.852;4.438;2023-02-07T04:09:28;19.02;;;13.32;;
10769;SDS011;5437;50.852;4.438;2023-02-07T04:11:54;19.83;;;13.05;;
10769;SDS011;5437;50.852;4.438;2023-02-07T04:14:20;20.33;;;13.43;;
10769;SDS011;5437;50.852;4.438;2023-02-07T04:16:46;22.45;;;14.98;;
10769;SDS011;5437;50.852;4.438;2023-02-07T04:19:13;18.63;;;12.85;;
10769;SDS011;5437;50.852;4.438;2023-02-07T04:21:39;19.85;;;13.30;;
10769;SDS011;5437;50.852;4.438;2023-02-07T04:24:05;22.55;;;13.75;;
10769;SDS011;5437;50.852;4.438;2023-02-07T04:26:31;17.80;;;13.23;;
10769;SDS011;5437;50.852;4.438;2023-02-07T04:28:57;16.88;;;12.57;;
10769;SDS011;5437;50.852;4.438;2023-02-07T04:31:23;15.30;;;12.05;;
10769;SDS011;5437;50.852;4.438;2023-02-07T04:33:49;16.65;;;12.65;;
10769;SDS011;5437;50.852;4.438;2023-02-07T04:36:15;17.73;;;12.52;;
10769;SDS011;5437;50.852;4.438;2023-02-07T04:38:41;17.45;;;13.27;;
10769;SDS011;5437;50.852;4.438;2023-02-07T04:41:07;15.98;;;12.77;;
10769;SDS011;5437;50.852;4.438;2023-02-07T04:43:35;15.27;;;11.57;;
10769;SDS011;5437;50.852;4.438;2023-02-07T04:46:02;16.00;;;12.18;;
10769;SDS011;5437;50.852;4.438;2023-02-07T04:48:29;16.08;;;12.40;;
10769;SDS011;5437;50.852;4.438;2023-02-07T04:50:55;16.52;;;12.85;;
10769;SDS011;5437;50.852;4.438;2023-02-07T04:53:22;16.70;;;12.25;;
10769;SDS011;5437;50.852;4.438;2023-02-07T04:55:48;16.95;;;12.48;;
10769;SDS011;5437;50.852;4.438;2023-02-07T04:58:14;17.92;;;12.20;;
10769;SDS011;5437;50.852;4.438;2023-02-07T05:00:40;16.08;;;11.88;;
10769;SDS011;5437;50.852;4.438;2023-02-07T05:03:06;16.20;;;11.80;;
10769;SDS011;5437;50.852;4.438;2023-02-07T05:05:32;14.70;;;11.65;;
10769;SDS011;5437;50.852;4.438;2023-02-07T05:07:58;14.40;;;11.40;;
10769;SDS011;5437;50.852;4.438;2023-02-07T05:10:24;15.85;;;12.38;;
10769;SDS011;5437;50.852;4.438;2023-02-07T05:12:50;13.95;;;11.38;;
10769;SDS011;5437;50.852;4.438;2023-02-07T05:15:17;15.60;;;11.95;;
10769;SDS011;5437;50.852;4.438;2023-02-07T05:17:43;15.07;;;11.38;;
10769;SDS011;5437;50.852;4.438;2023-02-07T05:20:09;18.08;;;12.52;;
10769;SDS011;5437;50.852;4.438;2023-02-07T05:22:35;16.85;;;11.68;;
10769;SDS011;5437;50.852;4.438;2023-02-07T05:25:01;17.63;;;11.82;;
10769;SDS011;5437;50.852;4.438;2023-02-07T05:27:27;20.67;;;12.23;;
10769;SDS011;5437;50.852;4.438;2023-02-07T05:29:53;15.55;;;11.75;;
10769;SDS011;5437;50.852;4.438;2023-02-07T05:32:19;18.63;;;12.20;;
10769;SDS011;5437;50.852;4.438;2023-02-07T05:35:03;15.98;;;11.27;;
10769;SDS011;5437;50.852;4.438;2023-02-07T17:39:40;8.13;;;6.47;;
10769;SDS011;5437;50.852;4.438;2023-02-07T17:42:06;10.43;;;7.60;;
10769;SDS011;5437;50.852;4.438;2023-02-07T17:44:32;10.38;;;7.63;;
10769;SDS011;5437;50.852;4.438;2023-02-07T17:46:59;13.68;;;8.05;;
10769;SDS011;5437;50.852;4.438;2023-02-07T17:49:25;15.45;;;8.68;;
10769;SDS011;5437;50.852;4.438;2023-02-07T17:51:51;13.07;;;8.43;;
10769;SDS011;5437;50.852;4.438;2023-02-07T17:54:17;14.30;;;8.55;;
10769;SDS011;5437;50.852;4.438;2023-02-07T17:56:43;11.18;;;8.30;;
10769;SDS011;5437;50.852;4.438;2023-02-07T17:59:13;12.95;;;8.30;;
10769;SDS011;5437;50.852;4.438;2023-02-07T18:01:41;16.85;;;8.90;;
10769;SDS011;5437;50.852;4.438;2023-02-07T18:04:07;13.68;;;9.00;;
10769;SDS011;5437;50.852;4.438;2023-02-07T18:06:33;12.57;;;8.93;;
10769;SDS011;5437;50.852;4.438;2023-02-07T18:09:00;13.95;;;9.27;;
10769;SDS011;5437;50.852;4.438;2023-02-07T18:11:26;15.57;;;9.07;;
10769;SDS011;5437;50.852;4.438;2023-02-07T18:13:52;12.73;;;8.70;;
10769;SDS011;5437;50.852;4.438;2023-02-07T18:16:21;15.52;;;10.68;;
10769;SDS011;5437;50.852;4.438;2023-02-07T18:18:48;11.65;;;10.25;;
10769;SDS011;5437;50.852;4.438;2023-02-07T18:21:15;14.52;;;10.07;;
10769;SDS011;5437;50.852;4.438;2023-02-07T18:23:41;13.05;;;9.13;;
10769;SDS011;5437;50.852;4.438;2023-02-07T18:26:08;12.43;;;9.40;;
10769;SDS011;5437;50.852;4.438;2023-02-07T18:28:35;14.65;;;10.10;;
10769;SDS011;5437;50.852;4.438;2023-02-07T18:31:06;10.88;;;9.27;;
10769;SDS011;5437;50.852;4.438;2023-02-07T18:33:32;12.18;;;9.35;;
10769;SDS011;5437;50.852;4.438;2023-02-07T18:35:58;14.30;;;9.45;;
10769;SDS011;5437;50.852;4.438;2023-02-07T18:38:25;12.18;;;8.73;;
10769;SDS011;5437;50.852;4.438;2023-02-07T18:40:51;11.73;;;8.25;;
10769;SDS011;5437;50.852;4.438;2023-02-07T18:43:17;13.98;;;9.63;;
10769;SDS011;5437;50.852;4.438;2023-02-07T18:45:43;12.30;;;9.10;;
10769;SDS011;5437;50.852;4.438;2023-02-07T18:48:09;12.52;;;9.40;;
10769;SDS011;5437;50.852;4.438;2023-02-07T18:50:35;12.85;;;9.32;;
10769;SDS011;5437;50.852;4.438;2023-02-07T18:53:01;13.85;;;9.50;;
10769;SDS011;5437;50.852;4.438;2023-02-07T18:55:29;16.42;;;9.35;;
10769;SDS011;5437;50.852;4.438;2023-02-07T18:57:55;11.48;;;9.43;;
10769;SDS011;5437;50.852;4.438;2023-02-07T19:00:21;12.38;;;9.27;;
10769;SDS011;5437;50.852;4.438;2023-02-07T19:02:48;14.63;;;9.52;;
10769;SDS011;5437;50.852;4.438;2023-02-07T19:05:14;13.82;;;9.68;;
10769;SDS011;5437;50.852;4.438;2023-02-07T19:07:40;12.43;;;9.98;;
10769;SDS011;5437;50.852;4.438;2023-02-07T19:10:06;12.77;;;10.02;;
10769;SDS011;5437;50.852;4.438;2023-02-07T19:12:36;13.80;;;10.73;;
10769;SDS011;5437;50.852;4.438;2023-02-07T19:15:02;15.70;;;11.07;;
10769;SDS011;5437;50.852;4.438;2023-02-07T19:17:28;15.43;;;11.13;;
10769;SDS011;5437;50.852;4.438;2023-02-07T19:19:54;18.25;;;11.80;;
10769;SDS011;5437;50.852;4.438;2023-02-07T19:22:20;19.65;;;11.88;;
10769;SDS011;5437;50.852;4.438;2023-02-07T19:24:47;15.70;;;11.40;;
10769;SDS011;5437;50.852;4.438;2023-02-07T19:27:13;15.52;;;10.68;;
10769;SDS011;5437;50.852;4.438;2023-02-07T19:29:39;14.95;;;11.15;;
10769;SDS011;5437;50.852;4.438;2023-02-07T19:32:06;14.38;;;9.75;;
10769;SDS011;5437;50.852;4.438;2023-02-07T19:34:33;12.95;;;9.60;;
10769;SDS011;5437;50.852;4.438;2023-02-07T19:36:59;13.18;;;9.98;;
10769;SDS011;5437;50.852;4.438;2023-02-07T19:39:26;14.30;;;9.88;;
10769;SDS011;5437;50.852;4.438;2023-02-07T19:41:52;13.23;;;9.38;;
10769;SDS011;5437;50.852;4.438;2023-02-07T19:44:19;13.23;;;10.07;;
10769;SDS011;5437;50.852;4.438;2023-02-07T19:46:45;13.68;;;9.93;;
10769;SDS011;5437;50.852;4.438;2023-02-07T19:49:11;13.93;;;10.25;;
10769;SDS011;5437;50.852;4.438;2023-02-07T19:51:38;13.07;;;10.73;;
10769;SDS011;5437;50.852;4.438;2023-02-07T19:54:04;14.25;;;9.80;;
10769;SDS011;5437;50.852;4.438;2023-02-07T19:56:31;14.77;;;9.93;;
10769;SDS011;5437;50.852;4.438;2023-02-07T19:58:58;13.65;;;10.15;;
10769;SDS011;5437;50.852;4.438;2023-02-07T20:01:27;13.13;;;9.65;;
10769;SDS011;5437;50.852;4.438;2023-02-07T20:03:53;13.15;;;10.02;;
10769;SDS011;5437;50.852;4.438;2023-02-07T20:06:21;13.60;;;9.98;;
10769;SDS011;5437;50.852;4.438;2023-02-07T20:08:47;15.80;;;10.85;;
10769;SDS011;5437;50.852;4.438;2023-02-07T20:11:14;12.80;;;10.07;;
10769;SDS011;5437;50.852;4.438;2023-02-07T20:13:42;13.80;;;10.32;;
10769;SDS011;5437;50.852;4.438;2023-02-07T20:16:09;16.02;;;10.95;;
10769;SDS011;5437;50.852;4.438;2023-02-07T20:18:36;15.07;;;10.98;;
10769;SDS011;5437;50.852;4.438;2023-02-07T20:21:03;14.20;;;10.45;;
10769;SDS011;5437;50.852;4.438;2023-02-07T20:23:29;15.25;;;10.82;;
10769;SDS011;5437;50.852;4.438;2023-02-07T20:26:00;15.90;;;11.23;;
10769;SDS011;5437;50.852;4.438;2023-02-07T20:28:26;14.98;;;10.68;;
10769;SDS011;5437;50.852;4.438;2023-02-07T20:30:53;16.52;;;11.48;;
10769;SDS011;5437;50.852;4.438;2023-02-07T20:33:19;15.20;;;11.43;;
10769;SDS011;5437;50.852;4.438;2023-02-07T20:35:47;16.15;;;11.38;;
10769;SDS011;5437;50.852;4.438;2023-02-07T20:38:13;15.48;;;11.43;;
10769;SDS011;5437;50.852;4.438;2023-02-07T20:40:39;17.55;;;11.95;;
10769;SDS011;5437;50.852;4.438;2023-02-07T20:43:05;15.40;;;11.00;;
10769;SDS011;5437;50.852;4.438;2023-02-07T20:45:31;19.98;;;11.82;;
10769;SDS011;5437;50.852;4.438;2023-02-07T20:47:57;16.15;;;11.40;;
10769;SDS011;5437;50.852;4.438;2023-02-07T20:50:23;14.68;;;10.70;;
10769;SDS011;5437;50.852;4.438;2023-02-07T20:52:49;16.40;;;12.27;;
10769;SDS011;5437;50.852;4.438;2023-02-07T20:55:15;14.35;;;11.23;;
10769;SDS011;5437;50.852;4.438;2023-02-07T20:57:41;17.42;;;12.45;;
10769;SDS011;5437;50.852;4.438;2023-02-07T21:00:07;17.70;;;11.52;;
10769;SDS011;5437;50.852;4.438;2023-02-07T21:02:34;16.58;;;11.70;;
10769;SDS011;5437;50.852;4.438;2023-02-07T21:05:02;16.73;;;12.00;;
10769;SDS011;5437;50.852;4.438;2023-02-07T21:07:28;17.15;;;12.27;;
10769;SDS011;5437;50.852;4.438;2023-02-07T21:09:54;16.63;;;11.10;;
10769;SDS011;5437;50.852;4.438;2023-02-07T21:12:20;14.63;;;11.20;;
10769;SDS011;5437;50.852;4.438;2023-02-07T21:14:46;20.40;;;12.55;;
10769;SDS011;5437;50.852;4.438;2023-02-07T21:17:12;17.02;;;12.43;;
10769;SDS011;5437;50.852;4.438;2023-02-07T21:19:38;21.35;;;13.75;;
10769;SDS011;5437;50.852;4.438;2023-02-07T21:22:04;21.20;;;14.25;;
10769;SDS011;5437;50.852;4.438;2023-02-07T21:24:31;23.70;;;14.95;;
10769;SDS011;5437;50.852;4.438;2023-02-07T21:26:57;24.23;;;16.17;;
10769;SDS011;5437;50.852;4.438;2023-02-07T21:29:23;22.70;;;15.68;;
10769;SDS011;5437;50.852;4.438;2023-02-07T21:31:50;24.35;;;16.63;;
10769;SDS011;5437;50.852;4.438;2023-02-07T21:34:19;25.80;;;18.52;;
10769;SDS011;5437;50.852;4.438;2023-02-07T21:37:01;27.23;;;18.02;;
10769;SDS011;5437;50.852;4.438;2023-02-07T21:39:27;25.80;;;17.65;;
10769;SDS011;5437;50.852;4.438;2023-02-07T21:41:53;30.00;;;19.33;;
10769;SDS011;5437;50.852;4.438;2023-02-07T21:44:19;26.80;;;18.63;;
10769;SDS011;5437;50.852;4.438;2023-02-07T21:46:46;29.38;;;19.70;;
10769;SDS011;5437;50.852;4.438;2023-02-07T21:49:16;28.58;;;19.30;;
10769;SDS011;5437;50.852;4.438;2023-02-07T21:51:45;28.30;;;19.63;;
10769;SDS011;5437;50.852;4.438;2023-02-07T21:54:12;27.45;;;19.30;;
10769;SDS011;5437;50.852;4.438;2023-02-07T21:56:40;25.98;;;18.35;;
10769;SDS011;5437;50.852;4.438;2023-02-07T21:59:10;25.23;;;18.85;;
10769;SDS011;5437;50.852;4.438;2023-02-07T22:01:36;25.05;;;18.65;;
10769;SDS011;5437;50.852;4.438;2023-02-07T22:04:04;24.98;;;18.35;;
10769;SDS011;5437;50.852;4.438;2023-02-07T22:06:30;25.17;;;17.60;;
10769;SDS011;5437;50.852;4.438;2023-02-07T22:08:58;22.17;;;16.58;;
10769;SDS011;5437;50.852;4.438;2023-02-07T22:11:25;23.23;;;16.08;;
10769;SDS011;5437;50.852;4.438;2023-02-07T22:13:52;21.67;;;15.82;;
10769;SDS011;5437;50.852;4.438;2023-02-07T22:16:19;23.23;;;16.75;;
10769;SDS011;5437;50.852;4.438;2023-02-07T22:18:45;22.45;;;17.45;;
10769;SDS011;5437;50.852;4.438;2023-02-07T22:23:37;24.50;;;16.95;;
10769;SDS011;5437;50.852;4.438;2023-02-07T22:26:03;22.38;;;16.63;;
10769;SDS011;5437;50.852;4.438;2023-02-07T22:28:30;26.55;;;17.27;;
10769;SDS011;5437;50.852;4.438;2023-02-07T22:30:56;21.45;;;15.93;;
10769;SDS011;5437;50.852;4.438;2023-02-07T22:33:22;22.65;;;16.17;;
10769;SDS011;5437;50.852;4.438;2023-02-07T22:35:48;21.33;;;14.10;;
10769;SDS011;5437;50.852;4.438;2023-02-07T22:38:14;18.70;;;13.60;;
10769;SDS011;5437;50.852;4.438;2023-02-07T22:40:40;18.02;;;14.80;;
10769;SDS011;5437;50.852;4.438;2023-02-07T22:43:07;23.25;;;16.55;;
10769;SDS011;5437;50.852;4.438;2023-02-07T22:45:35;21.73;;;15.95;;
10769;SDS011;5437;50.852;4.438;2023-02-07T22:48:02;21.42;;;16.17;;
10769;SDS011;5437;50.852;4.438;2023-02-07T22:50:28;21.88;;;15.48;;
10769;SDS011;5437;50.852;4.438;2023-02-07T22:52:55;22.17;;;15.32;;
10769;SDS011;5437;50.852;4.438;2023-02-07T22:55:21;21.30;;;15.68;;
10769;SDS011;5437;50.852;4.438;2023-02-07T22:57:47;21.58;;;14.88;;
10769;SDS011;5437;50.852;4.438;2023-02-07T23:00:14;19.80;;;13.98;;
10769;SDS011;5437;50.852;4.438;2023-02-07T23:02:40;18.65;;;14.63;;
10769;SDS011;5437;50.852;4.438;2023-02-07T23:05:06;19.90;;;14.68;;
10769;SDS011;5437;50.852;4.438;2023-02-07T23:07:33;19.83;;;14.77;;
10769;SDS011;5437;50.852;4.438;2023-02-07T23:09:59;19.42;;;13.45;;
10769;SDS011;5437;50.852;4.438;2023-02-07T23:12:25;19.38;;;14.52;;
10769;SDS011;5437;50.852;4.438;2023-02-07T23:14:51;21.00;;;14.35;;
10769;SDS011;5437;50.852;4.438;2023-02-07T23:17:17;20.58;;;14.48;;
10769;SDS011;5437;50.852;4.438;2023-02-07T23:19:43;19.48;;;14.45;;
10769;SDS011;5437;50.852;4.438;2023-02-07T23:22:09;21.10;;;14.45;;
10769;SDS011;5437;50.852;4.438;2023-02-07T23:24:35;19.45;;;14.70;;
10769;SDS011;5437;50.852;4.438;2023-02-07T23:27:01;19.42;;;14.10;;
10769;SDS011;5437;50.852;4.438;2023-02-07T23:29:27;19.30;;;14.88;;
10769;SDS011;5437;50.852;4.438;2023-02-07T23:31:53;20.88;;;14.85;;
10769;SDS011;5437;50.852;4.438;2023-02-07T23:34:19;23.15;;;15.45;;
10769;SDS011;5437;50.852;4.438;2023-02-07T23:36:45;21.98;;;15.60;;
10769;SDS011;5437;50.852;4.438;2023-02-07T23:39:13;20.60;;;15.38;;
10769;SDS011;5437;50.852;4.438;2023-02-07T23:41:39;22.63;;;16.02;;
10769;SDS011;5437;50.852;4.438;2023-02-07T23:44:05;24.77;;;18.42;;
10769;SDS011;5437;50.852;4.438;2023-02-07T23:46:31;24.00;;;18.08;;
10769;SDS011;5437;50.852;4.438;2023-02-07T23:48:57;26.48;;;19.23;;
10769;SDS011;5437;50.852;4.438;2023-02-07T23:51:25;26.33;;;17.73;;
10769;SDS011;5437;50.852;4.438;2023-02-07T23:53:51;25.10;;;17.17;;
10769;SDS011;5437;50.852;4.438;2023-02-07T23:56:19;25.13;;;16.35;;
10769;SDS011;5437;50.852;4.438;2023-02-07T23:58:46;22.67;;;15.63;;
